createdAt,value
2018-04-19T00:00:03.104Z,15.33
2018-04-19T00:01:02.782Z,15.29
2018-04-19T00:02:02.628Z,15.28
2018-04-19T00:03:03.327Z,15.22
2018-04-19T00:04:03.282Z,15.21
2018-04-19T00:05:44.711Z,15.17
2018-04-19T00:06:45.452Z,15.15
2018-04-19T00:08:07.582Z,15.09
2018-04-19T00:09:06.163Z,15.06
2018-04-19T00:10:06.740Z,15.03
2018-04-19T00:11:06.496Z,15.00
2018-04-19T00:12:07.262Z,14.97
2018-04-19T00:13:06.880Z,14.94
2018-04-19T00:14:27.874Z,14.94
2018-04-19T00:15:28.054Z,14.92
2018-04-19T00:16:28.018Z,14.89
2018-04-19T00:17:27.741Z,14.88
2018-04-19T00:18:28.763Z,14.88
2018-04-19T00:19:28.509Z,14.84
2018-04-19T00:20:28.675Z,14.84
2018-04-19T00:21:27.870Z,14.84
2018-04-19T00:22:27.600Z,14.84
2018-04-19T00:23:48.748Z,14.81
2018-04-19T00:24:49.509Z,14.78
2018-04-19T00:25:49.270Z,14.78
2018-04-19T00:26:49.216Z,14.78
2018-04-19T00:27:48.964Z,14.78
2018-04-19T00:28:49.145Z,14.78
2018-04-19T00:29:50.031Z,14.78
2018-04-19T00:30:48.762Z,14.73
2018-04-19T00:31:49.826Z,14.70
2018-04-19T00:33:10.211Z,14.72
2018-04-19T00:34:11.360Z,14.69
2018-04-19T00:35:11.562Z,14.68
2018-04-19T00:36:10.355Z,14.68
2018-04-19T00:37:11.362Z,14.68
2018-04-19T00:38:11.489Z,14.66
2018-04-19T00:39:10.336Z,14.65
2018-04-19T00:40:10.953Z,14.63
2018-04-19T00:41:11.001Z,14.65
2018-04-19T00:42:10.732Z,14.65
2018-04-19T00:43:11.076Z,14.63
2018-04-19T00:44:10.906Z,14.62
2018-04-19T00:45:31.177Z,14.60
2018-04-19T00:46:31.996Z,14.60
2018-04-19T00:47:31.684Z,14.60
2018-04-19T00:48:31.352Z,14.62
2018-04-19T00:49:52.925Z,14.66
2018-04-19T00:50:53.484Z,14.66
2018-04-19T00:51:53.486Z,14.68
2018-04-19T00:52:53.131Z,14.63
2018-04-19T00:53:53.371Z,14.62
2018-04-19T00:54:53.020Z,14.63
2018-04-19T00:55:54.119Z,14.63
2018-04-19T00:56:53.658Z,14.62
2018-04-19T00:57:53.577Z,14.59
2018-04-19T00:58:53.406Z,14.58
2018-04-19T01:00:34.205Z,14.55
2018-04-19T01:01:55.909Z,14.53
2018-04-19T01:02:55.703Z,14.53
2018-04-19T01:04:16.861Z,14.51
2018-04-19T01:05:17.732Z,14.51
2018-04-19T01:06:58.533Z,14.50
2018-04-19T01:07:59.549Z,14.51
2018-04-19T01:08:59.346Z,14.53
2018-04-19T01:09:59.212Z,14.50
2018-04-19T01:10:58.780Z,14.50
2018-04-19T01:11:58.983Z,14.50
2018-04-19T01:12:59.095Z,14.50
2018-04-19T01:13:59.209Z,14.48
2018-04-19T01:14:58.945Z,14.48
2018-04-19T01:16:19.720Z,14.45
2018-04-19T01:17:19.567Z,14.44
2018-04-19T01:18:19.358Z,14.41
2018-04-19T01:19:20.906Z,14.40
2018-04-19T01:20:20.007Z,14.40
2018-04-19T01:21:19.586Z,14.37
2018-04-19T01:22:20.025Z,14.36
2018-04-19T01:23:40.563Z,14.35
2018-04-19T01:24:41.644Z,14.32
2018-04-19T01:26:02.219Z,14.29
2018-04-19T01:27:02.897Z,14.28
2018-04-19T01:28:02.877Z,14.26
2018-04-19T01:29:02.555Z,14.25
2018-04-19T01:30:23.151Z,14.25
2018-04-19T01:31:24.200Z,14.25
2018-04-19T01:32:24.343Z,14.22
2018-04-19T01:33:23.592Z,14.23
2018-04-19T01:34:23.819Z,14.25
2018-04-19T01:35:23.975Z,14.29
2018-04-19T01:36:23.545Z,14.35
2018-04-19T01:37:23.436Z,14.41
2018-04-19T01:38:23.388Z,14.44
2018-04-19T01:39:23.949Z,14.44
2018-04-19T01:40:23.663Z,14.47
2018-04-19T01:41:23.687Z,14.48
2018-04-19T01:42:23.624Z,14.50
2018-04-19T01:43:44.196Z,14.48
2018-04-19T01:44:44.994Z,14.47
2018-04-19T01:45:45.031Z,14.43
2018-04-19T01:46:45.076Z,14.40
2018-04-19T01:47:45.093Z,14.41
2018-04-19T01:48:44.885Z,14.41
2018-04-19T01:49:44.843Z,14.37
2018-04-19T01:50:44.776Z,14.40
2018-04-19T01:51:44.716Z,14.35
2018-04-19T01:52:44.600Z,14.33
2018-04-19T01:53:44.850Z,14.32
2018-04-19T01:54:44.576Z,14.30
2018-04-19T01:55:44.073Z,14.30
2018-04-19T01:56:45.124Z,14.33
2018-04-19T01:57:45.133Z,14.35
2018-04-19T01:58:45.118Z,14.36
2018-04-19T02:00:05.310Z,14.33
2018-04-19T02:01:06.448Z,14.32
2018-04-19T02:02:06.232Z,14.32
2018-04-19T02:03:06.173Z,14.32
2018-04-19T02:04:05.908Z,14.32
2018-04-19T02:05:05.662Z,14.30
2018-04-19T02:06:05.680Z,14.30
2018-04-19T02:07:05.419Z,14.32
2018-04-19T02:08:06.365Z,14.30
2018-04-19T02:09:06.214Z,14.29
2018-04-19T02:10:06.310Z,14.32
2018-04-19T02:11:06.290Z,14.30
2018-04-19T02:12:05.968Z,14.30
2018-04-19T02:13:05.669Z,14.32
2018-04-19T02:14:05.367Z,14.30
2018-04-19T02:15:06.006Z,14.32
2018-04-19T02:16:26.456Z,14.32
2018-04-19T02:17:47.920Z,14.30
2018-04-19T02:18:48.789Z,14.29
2018-04-19T02:19:48.811Z,14.26
2018-04-19T02:20:48.487Z,14.23
2018-04-19T02:21:48.291Z,14.22
2018-04-19T02:22:48.431Z,14.20
2018-04-19T02:23:48.353Z,14.15
2018-04-19T02:25:09.157Z,14.08
2018-04-19T02:26:08.845Z,14.08
2018-04-19T02:27:09.917Z,14.05
2018-04-19T02:28:30.182Z,14.04
2018-04-19T02:29:30.701Z,14.03
2018-04-19T02:30:30.671Z,14.03
2018-04-19T02:31:31.132Z,14.03
2018-04-19T02:32:31.137Z,14.04
2018-04-19T02:33:30.272Z,14.07
2018-04-19T02:34:30.195Z,14.05
2018-04-19T02:35:31.468Z,14.05
2018-04-19T02:36:30.136Z,14.07
2018-04-19T02:37:30.784Z,14.07
2018-04-19T02:38:30.497Z,14.07
2018-04-19T02:39:30.163Z,14.05
2018-04-19T02:40:30.710Z,14.07
2018-04-19T02:41:38.172Z,14.05
2018-04-19T02:42:32.229Z,14.04
2018-04-19T02:43:31.451Z,14.04
2018-04-19T02:44:30.286Z,14.00
2018-04-19T02:45:53.317Z,14.00
2018-04-19T02:46:51.904Z,13.97
2018-04-19T02:47:52.149Z,13.99
2018-04-19T02:48:50.840Z,13.99
2018-04-19T02:49:51.054Z,13.97
2018-04-19T02:50:50.739Z,13.96
2018-04-19T02:51:51.219Z,14.00
2018-04-19T02:52:51.002Z,14.03
2018-04-19T02:53:51.048Z,14.00
2018-04-19T02:54:50.894Z,14.04
2018-04-19T02:55:50.576Z,14.03
2018-04-19T02:56:51.150Z,14.00
2018-04-19T02:57:51.071Z,14.00
2018-04-19T02:58:50.978Z,13.97
2018-04-19T02:59:50.805Z,13.97
2018-04-19T03:00:50.493Z,13.93
2018-04-19T03:02:12.296Z,13.93
2018-04-19T03:03:12.044Z,13.90
2018-04-19T03:04:12.648Z,13.87
2018-04-19T03:05:12.557Z,13.87
2018-04-19T03:06:32.530Z,13.86
2018-04-19T03:07:32.958Z,13.86
2018-04-19T03:08:32.680Z,13.85
2018-04-19T03:09:54.112Z,13.79
2018-04-19T03:10:54.191Z,13.78
2018-04-19T03:11:54.685Z,13.77
2018-04-19T03:12:54.433Z,13.75
2018-04-19T03:13:54.096Z,13.74
2018-04-19T03:15:35.150Z,13.74
2018-04-19T03:16:34.767Z,13.74
2018-04-19T03:17:36.014Z,13.74
2018-04-19T03:18:36.499Z,13.75
2018-04-19T03:19:35.535Z,13.75
2018-04-19T03:20:35.127Z,13.75
2018-04-19T03:21:55.559Z,13.74
2018-04-19T03:23:16.583Z,13.72
2018-04-19T03:24:17.467Z,13.70
2018-04-19T03:25:37.640Z,13.70
2018-04-19T03:26:38.827Z,13.68
2018-04-19T03:27:38.734Z,13.68
2018-04-19T03:28:38.378Z,13.65
2018-04-19T03:29:38.448Z,13.65
2018-04-19T03:30:38.341Z,13.67
2018-04-19T03:31:38.020Z,13.67
2018-04-19T03:32:58.520Z,13.67
2018-04-19T03:33:59.217Z,13.68
2018-04-19T03:35:00.288Z,13.68
2018-04-19T03:35:59.174Z,13.70
2018-04-19T03:36:58.744Z,13.71
2018-04-19T03:37:59.741Z,13.74
2018-04-19T03:38:59.337Z,13.71
2018-04-19T03:39:59.353Z,13.71
2018-04-19T03:41:19.146Z,13.71
2018-04-19T03:42:19.832Z,13.71
2018-04-19T03:43:19.407Z,13.72
2018-04-19T03:44:40.408Z,13.72
2018-04-19T03:45:41.269Z,13.70
2018-04-19T03:46:40.833Z,13.70
2018-04-19T03:47:40.691Z,13.70
2018-04-19T03:49:02.396Z,13.70
2018-04-19T03:50:43.382Z,13.67
2018-04-19T03:51:44.818Z,13.65
2018-04-19T03:52:43.903Z,13.63
2018-04-19T03:53:43.340Z,13.59
2018-04-19T03:54:45.389Z,13.59
2018-04-19T03:55:44.824Z,13.59
2018-04-19T03:56:44.950Z,13.57
2018-04-19T03:57:43.985Z,13.57
2018-04-19T03:58:43.950Z,13.56
2018-04-19T03:59:44.021Z,13.54
2018-04-19T04:01:04.452Z,13.54
2018-04-19T04:02:05.366Z,13.53
2018-04-19T04:03:46.265Z,13.54
2018-04-19T04:04:47.072Z,13.54
2018-04-19T04:05:46.981Z,13.57
2018-04-19T04:06:45.729Z,13.60
2018-04-19T04:07:47.302Z,13.63
2018-04-19T04:08:46.233Z,13.62
2018-04-19T04:09:46.362Z,13.63
2018-04-19T04:10:46.146Z,13.62
2018-04-19T04:11:46.084Z,13.60
2018-04-19T04:13:06.655Z,13.62
2018-04-19T04:14:06.389Z,13.62
2018-04-19T04:15:07.201Z,13.59
2018-04-19T04:16:48.364Z,13.62
2018-04-19T04:17:58.435Z,13.62
2018-04-19T04:18:49.360Z,13.60
2018-04-19T04:20:29.558Z,13.62
2018-04-19T04:21:30.223Z,13.62
2018-04-19T04:22:50.951Z,13.62
2018-04-19T04:24:11.507Z,13.65
2018-04-19T04:25:12.522Z,13.63
2018-04-19T04:26:11.633Z,13.63
2018-04-19T04:27:32.260Z,13.63
2018-04-19T04:28:32.395Z,13.65
2018-04-19T04:29:32.150Z,13.63
2018-04-19T04:30:31.878Z,13.63
2018-04-19T04:31:32.878Z,13.62
2018-04-19T04:32:33.579Z,13.62
2018-04-19T04:33:33.291Z,13.60
2018-04-19T04:35:34.433Z,13.62
2018-04-19T04:36:35.503Z,13.63
2018-04-19T04:37:35.739Z,13.68
2018-04-19T04:38:34.545Z,13.71
2018-04-19T04:39:34.890Z,13.72
2018-04-19T04:40:34.724Z,13.72
2018-04-19T04:41:34.855Z,13.74
2018-04-19T04:42:34.977Z,13.75
2018-04-19T04:43:34.717Z,13.74
2018-04-19T04:44:34.481Z,13.74
2018-04-19T04:45:35.629Z,13.75
2018-04-19T04:46:34.398Z,13.74
2018-04-19T04:47:55.916Z,13.77
2018-04-19T04:48:56.634Z,13.75
2018-04-19T04:49:56.704Z,13.78
2018-04-19T04:50:56.533Z,13.78
2018-04-19T04:51:56.893Z,13.78
2018-04-19T04:52:57.125Z,13.79
2018-04-19T04:53:56.278Z,13.78
2018-04-19T04:54:56.187Z,13.79
2018-04-19T04:55:56.226Z,13.85
2018-04-19T04:56:57.022Z,13.86
2018-04-19T04:57:56.831Z,13.90
2018-04-19T04:58:57.396Z,13.93
2018-04-19T04:59:56.969Z,13.99
2018-04-19T05:00:57.359Z,14.05
2018-04-19T05:01:56.220Z,14.08
2018-04-19T05:02:56.695Z,14.14
2018-04-19T05:03:56.508Z,14.18
2018-04-19T05:04:56.401Z,14.25
2018-04-19T05:05:56.155Z,14.30
2018-04-19T05:06:56.055Z,14.35
2018-04-19T05:07:57.208Z,14.43
2018-04-19T05:08:56.686Z,14.48
2018-04-19T05:09:56.473Z,14.53
2018-04-19T05:10:56.820Z,14.62
2018-04-19T05:12:17.807Z,14.68
2018-04-19T05:13:18.640Z,14.70
2018-04-19T05:14:18.583Z,14.73
2018-04-19T05:15:18.475Z,14.85
2018-04-19T05:16:18.418Z,14.99
2018-04-19T05:17:38.998Z,15.15
2018-04-19T05:19:00.834Z,15.31
2018-04-19T05:20:01.727Z,15.39
2018-04-19T05:21:03.862Z,15.44
2018-04-19T05:22:01.377Z,15.54
2018-04-19T05:23:01.329Z,15.68
2018-04-19T05:24:01.271Z,15.86
2018-04-19T05:25:01.601Z,16.04
2018-04-19T05:26:02.170Z,16.21
2018-04-19T05:27:43.118Z,16.56
2018-04-19T05:28:43.128Z,16.74
2018-04-19T05:29:42.776Z,16.84
2018-04-19T05:30:43.890Z,17.02
2018-04-19T05:31:42.905Z,17.26
2018-04-19T05:32:44.015Z,17.38
2018-04-19T05:33:43.243Z,17.57
2018-04-19T05:34:42.942Z,17.72
2018-04-19T05:35:43.538Z,17.86
2018-04-19T05:36:43.757Z,17.90
2018-04-19T05:37:43.702Z,18.00
2018-04-19T05:38:43.833Z,18.13
2018-04-19T05:39:43.612Z,18.29
2018-04-19T05:40:43.474Z,18.43
2018-04-19T05:41:43.317Z,18.56
2018-04-19T05:42:43.602Z,18.75
2018-04-19T05:44:04.656Z,18.96
2018-04-19T05:45:05.939Z,19.08
2018-04-19T05:46:04.860Z,19.27
2018-04-19T05:47:05.033Z,19.48
2018-04-19T05:48:49.501Z,19.59
2018-04-19T05:49:51.682Z,19.71
2018-04-19T05:50:49.902Z,19.81
2018-04-19T05:51:49.922Z,19.89
2018-04-19T05:53:10.720Z,20.09
2018-04-19T05:54:11.104Z,20.03
2018-04-19T05:55:32.899Z,19.92
2018-04-19T05:56:32.997Z,19.92
2018-04-19T05:57:54.673Z,19.96
2018-04-19T05:58:54.806Z,19.95
2018-04-19T05:59:54.584Z,19.88
2018-04-19T06:00:54.692Z,19.77
2018-04-19T06:01:54.616Z,19.70
2018-04-19T06:02:54.462Z,19.63
2018-04-19T06:04:15.863Z,19.41
2018-04-19T06:05:16.469Z,19.26
2018-04-19T06:06:43.033Z,19.04
2018-04-19T06:07:40.792Z,18.89
2018-04-19T06:08:40.632Z,18.78
2018-04-19T06:09:41.799Z,18.73
2018-04-19T06:11:03.086Z,18.58
2018-04-19T06:12:03.617Z,18.52
2018-04-19T06:13:03.281Z,18.50
2018-04-19T06:14:03.077Z,18.33
2018-04-19T06:15:24.407Z,18.18
2018-04-19T06:16:25.579Z,18.10
2018-04-19T06:17:25.644Z,17.98
2018-04-19T06:18:24.780Z,17.97
2018-04-19T06:19:24.624Z,17.92
2018-04-19T06:20:24.810Z,17.83
2018-04-19T06:21:24.883Z,17.85
2018-04-19T06:22:24.774Z,17.86
2018-04-19T06:23:24.937Z,17.90
2018-04-19T06:24:46.079Z,18.07
2018-04-19T06:26:28.434Z,18.49
2018-04-19T06:27:28.650Z,18.74
2018-04-19T06:28:48.958Z,19.12
2018-04-19T06:29:49.793Z,19.37
2018-04-19T06:30:50.135Z,19.70
2018-04-19T06:31:49.054Z,20.07
2018-04-19T06:32:49.299Z,20.44
2018-04-19T06:33:49.187Z,20.70
2018-04-19T06:34:49.074Z,20.96
2018-04-19T06:36:09.499Z,21.09
2018-04-19T06:37:31.349Z,21.51
2018-04-19T06:39:13.210Z,21.69
2018-04-19T06:40:13.883Z,21.69
2018-04-19T06:41:13.721Z,21.77
2018-04-19T06:42:13.809Z,22.20
2018-04-19T06:43:14.130Z,22.43
2018-04-19T06:44:13.883Z,22.44
2018-04-19T06:45:34.357Z,22.48
2018-04-19T06:46:35.579Z,22.81
2018-04-19T06:47:34.416Z,23.03
2018-04-19T06:48:35.229Z,23.05
2018-04-19T06:49:35.214Z,23.17
2018-04-19T06:50:34.989Z,23.46
2018-04-19T06:51:35.300Z,23.68
2018-04-19T06:52:35.614Z,23.74
2018-04-19T06:53:34.782Z,23.76
2018-04-19T06:54:34.737Z,23.96
2018-04-19T06:55:35.099Z,24.20
2018-04-19T06:56:35.029Z,24.30
2018-04-19T06:57:35.213Z,24.39
2018-04-19T06:58:35.470Z,24.43
2018-04-19T06:59:34.847Z,24.43
2018-04-19T07:00:35.174Z,24.57
2018-04-19T07:01:35.294Z,24.53
2018-04-19T07:02:35.181Z,24.54
2018-04-19T07:03:35.195Z,24.68
2018-04-19T07:04:34.893Z,24.60
2018-04-19T07:05:35.135Z,24.58
2018-04-19T07:06:35.997Z,24.55
2018-04-19T07:07:37.313Z,24.55
2018-04-19T07:08:35.084Z,24.48
2018-04-19T07:09:35.016Z,24.57
2018-04-19T07:10:34.996Z,24.86
2018-04-19T07:11:35.197Z,24.96
2018-04-19T07:12:35.535Z,24.91
2018-04-19T07:13:34.974Z,24.92
2018-04-19T07:14:36.460Z,25.03
2018-04-19T07:15:34.622Z,25.22
2018-04-19T07:16:34.878Z,25.33
2018-04-19T07:17:35.054Z,25.53
2018-04-19T07:18:35.175Z,25.73
2018-04-19T07:19:35.487Z,26.10
2018-04-19T07:20:34.775Z,26.13
2018-04-19T07:21:56.058Z,26.28
2018-04-19T07:23:17.142Z,26.81
2018-04-19T07:24:16.974Z,27.10
2018-04-19T07:25:16.958Z,27.37
2018-04-19T07:26:17.831Z,27.42
2018-04-19T07:27:17.714Z,27.58
2018-04-19T07:28:17.585Z,27.89
2018-04-19T07:29:17.442Z,28.10
2018-04-19T07:30:17.682Z,28.27
2018-04-19T07:31:17.915Z,28.44
2018-04-19T07:32:17.650Z,28.67
2018-04-19T07:33:17.621Z,28.75
2018-04-19T07:34:18.107Z,28.66
2018-04-19T07:35:17.778Z,28.44
2018-04-19T07:36:18.224Z,28.05
2018-04-19T07:37:17.070Z,28.22
2018-04-19T07:38:17.510Z,28.20
2018-04-19T07:39:20.273Z,28.15
2018-04-19T07:40:17.587Z,28.29
2018-04-19T07:41:59.670Z,28.75
2018-04-19T07:44:03.224Z,29.61
2018-04-19T07:45:04.157Z,29.73
2018-04-19T07:46:04.045Z,29.94
2018-04-19T07:47:04.131Z,30.21
2018-04-19T07:48:04.107Z,30.23
2018-04-19T07:49:04.523Z,30.08
2018-04-19T07:50:03.753Z,29.65
2018-04-19T07:51:03.641Z,29.41
2018-04-19T07:52:04.075Z,29.39
2018-04-19T07:53:24.778Z,29.04
2018-04-19T07:54:25.624Z,29.10
2018-04-19T07:55:25.791Z,29.19
2018-04-19T07:56:26.002Z,29.44
2018-04-19T07:57:25.168Z,29.72
2018-04-19T07:58:24.902Z,29.38
2018-04-19T07:59:25.992Z,29.23
2018-04-19T08:00:24.796Z,29.19
2018-04-19T08:01:25.720Z,29.47
2018-04-19T08:02:25.651Z,29.65
2018-04-19T08:03:25.884Z,29.66
2018-04-19T08:05:06.892Z,30.00
2018-04-19T08:06:07.974Z,30.35
2018-04-19T08:07:06.894Z,30.63
2018-04-19T08:08:27.460Z,30.91
2018-04-19T08:09:28.322Z,30.55
2018-04-19T08:10:28.687Z,30.44
2018-04-19T08:11:28.799Z,30.77
2018-04-19T08:12:28.095Z,31.06
2018-04-19T08:13:27.913Z,30.97
2018-04-19T08:14:28.150Z,31.15
2018-04-19T08:15:27.827Z,31.17
2018-04-19T08:16:27.954Z,31.00
2018-04-19T08:17:28.064Z,31.00
2018-04-19T08:18:28.127Z,30.92
2018-04-19T08:19:29.136Z,30.90
2018-04-19T08:20:28.056Z,30.88
2018-04-19T08:21:28.434Z,30.61
2018-04-19T08:22:49.177Z,30.54
2018-04-19T08:23:50.213Z,30.85
2018-04-19T08:24:50.401Z,30.90
2018-04-19T08:25:49.210Z,30.57
2018-04-19T08:27:11.784Z,30.43
2018-04-19T08:28:12.064Z,30.21
2018-04-19T08:29:33.050Z,30.34
2018-04-19T08:30:32.987Z,30.48
2018-04-19T08:31:33.192Z,30.80
2018-04-19T08:32:33.027Z,30.83
2018-04-19T08:33:33.236Z,30.69
2018-04-19T08:34:54.733Z,30.77
2018-04-19T08:35:55.274Z,30.97
2018-04-19T08:36:55.379Z,30.77
2018-04-19T08:38:15.252Z,30.70
2018-04-19T08:39:16.434Z,30.55
2018-04-19T08:40:15.312Z,30.91
2018-04-19T08:41:15.289Z,31.42
2018-04-19T08:42:16.485Z,31.87
2018-04-19T08:43:35.944Z,31.94
2018-04-19T08:44:37.147Z,32.26
2018-04-19T08:45:35.977Z,32.55
2018-04-19T08:46:36.928Z,32.85
2018-04-19T08:47:37.074Z,32.64
2018-04-19T08:48:36.862Z,32.71
2018-04-19T08:49:37.023Z,32.89
2018-04-19T08:50:37.371Z,33.34
2018-04-19T08:51:36.613Z,33.62
2018-04-19T08:52:36.705Z,33.28
2018-04-19T08:53:36.538Z,32.78
2018-04-19T08:54:36.367Z,33.08
2018-04-19T08:55:36.229Z,33.39
2018-04-19T08:56:36.868Z,33.80
2018-04-19T08:57:36.745Z,33.94
2018-04-19T08:58:36.614Z,33.83
2018-04-19T08:59:36.412Z,33.17
2018-04-19T09:00:36.291Z,33.08
2018-04-19T09:01:36.442Z,33.24
2018-04-19T09:02:36.578Z,33.61
2018-04-19T09:03:36.369Z,34.01
2018-04-19T09:04:36.531Z,34.43
2018-04-19T09:05:36.670Z,34.61
2018-04-19T09:06:36.557Z,34.57
2018-04-19T09:07:36.627Z,34.50
2018-04-19T09:08:36.289Z,34.36
2018-04-19T09:09:57.222Z,34.25
2018-04-19T09:10:58.479Z,34.08
2018-04-19T09:13:00.005Z,34.23
2018-04-19T09:13:59.704Z,34.50
2018-04-19T09:14:59.456Z,34.96
2018-04-19T09:16:00.969Z,35.30
2018-04-19T09:17:20.324Z,35.89
2018-04-19T09:18:21.339Z,35.93
2018-04-19T09:19:41.985Z,35.31
2018-04-19T09:20:42.110Z,35.26
2018-04-19T09:21:42.228Z,35.33
2018-04-19T09:22:42.072Z,35.48
2018-04-19T09:23:41.735Z,35.56
2018-04-19T09:24:42.767Z,35.85
2018-04-19T09:25:42.097Z,36.01
2018-04-19T09:27:03.066Z,35.85
2018-04-19T09:28:02.983Z,35.45
2018-04-19T09:29:03.057Z,35.31
2018-04-19T09:30:03.307Z,35.42
2018-04-19T09:31:03.078Z,35.45
2018-04-19T09:32:02.883Z,35.63
2018-04-19T09:33:03.975Z,35.88
2018-04-19T09:34:45.861Z,35.90
2018-04-19T09:35:46.751Z,35.83
2018-04-19T09:37:29.116Z,36.21
2018-04-19T09:38:28.960Z,36.27
2018-04-19T09:39:50.195Z,36.46
2018-04-19T09:40:50.290Z,36.80
2018-04-19T09:41:50.533Z,36.98
2018-04-19T09:42:50.721Z,37.06
2018-04-19T09:43:50.968Z,36.99
2018-04-19T09:44:49.817Z,36.79
2018-04-19T09:45:51.017Z,36.81
2018-04-19T09:46:51.171Z,37.18
2018-04-19T09:47:50.024Z,37.48
2018-04-19T09:48:49.785Z,37.48
2018-04-19T09:49:51.023Z,37.40
2018-04-19T09:50:49.846Z,37.77
2018-04-19T09:52:12.598Z,37.74
2018-04-19T09:53:12.440Z,37.40
2018-04-19T09:54:12.190Z,37.17
2018-04-19T09:55:11.933Z,36.98
2018-04-19T09:56:12.140Z,36.96
2018-04-19T09:57:12.011Z,37.20
2018-04-19T09:58:11.892Z,37.25
2018-04-19T10:00:14.717Z,37.08
2018-04-19T10:01:14.607Z,37.26
2018-04-19T10:02:15.590Z,37.20
2018-04-19T10:03:14.357Z,37.39
2018-04-19T10:04:15.067Z,37.44
2018-04-19T10:05:14.705Z,37.78
2018-04-19T10:06:14.991Z,38.02
2018-04-19T10:07:15.052Z,37.84
2018-04-19T10:08:15.135Z,37.74
2018-04-19T10:09:15.116Z,38.02
2018-04-19T10:10:15.427Z,37.90
2018-04-19T10:11:15.881Z,38.08
2018-04-19T10:12:15.031Z,38.38
2018-04-19T10:13:15.188Z,38.71
2018-04-19T10:14:14.880Z,38.61
2018-04-19T10:15:15.110Z,38.54
2018-04-19T10:16:15.261Z,38.62
2018-04-19T10:17:16.035Z,38.91
2018-04-19T10:18:57.338Z,38.62
2018-04-19T10:19:57.219Z,38.64
2018-04-19T10:20:56.981Z,38.65
2018-04-19T10:22:39.632Z,38.14
2018-04-19T10:23:40.761Z,37.84
2018-04-19T10:24:59.329Z,37.80
2018-04-19T10:26:00.300Z,37.83
2018-04-19T10:27:00.460Z,37.94
2018-04-19T10:28:00.231Z,38.09
2018-04-19T10:29:00.172Z,38.39
2018-04-19T10:29:59.972Z,38.43
2018-04-19T10:30:59.695Z,38.73
2018-04-19T10:32:00.740Z,38.46
2018-04-19T10:32:59.729Z,38.14
2018-04-19T10:34:20.239Z,38.28
2018-04-19T10:35:45.362Z,38.33
2018-04-19T10:36:46.107Z,37.94
2018-04-19T10:37:45.963Z,37.93
2018-04-19T10:38:47.529Z,37.99
2018-04-19T10:39:46.191Z,38.48
2018-04-19T10:40:46.005Z,37.70
2018-04-19T10:41:46.566Z,37.64
2018-04-19T10:42:46.284Z,37.33
2018-04-19T10:43:46.440Z,37.55
2018-04-19T10:44:46.211Z,37.48
2018-04-19T10:45:46.524Z,37.17
2018-04-19T10:46:45.283Z,37.18
2018-04-19T10:47:46.810Z,37.25
2018-04-19T10:48:46.602Z,37.37
2018-04-19T10:49:45.752Z,37.33
2018-04-19T10:50:45.991Z,37.59
2018-04-19T10:51:45.778Z,37.87
2018-04-19T10:53:26.973Z,37.33
2018-04-19T10:54:28.233Z,37.13
2018-04-19T10:55:27.308Z,37.03
2018-04-19T10:56:27.025Z,37.11
2018-04-19T10:57:27.939Z,36.96
2018-04-19T10:58:28.188Z,36.70
2018-04-19T10:59:27.611Z,36.30
2018-04-19T11:00:27.323Z,36.28
2018-04-19T11:01:27.580Z,36.27
2018-04-19T11:02:27.501Z,36.58
2018-04-19T11:03:27.446Z,36.30
2018-04-19T11:04:27.793Z,36.58
2018-04-19T11:05:27.562Z,36.84
2018-04-19T11:06:27.647Z,37.13
2018-04-19T11:07:27.519Z,37.30
2018-04-19T11:08:27.387Z,37.74
2018-04-19T11:09:27.191Z,37.99
2018-04-19T11:10:48.718Z,38.61
2018-04-19T11:12:09.309Z,38.99
2018-04-19T11:13:10.158Z,39.14
2018-04-19T11:14:10.250Z,38.97
2018-04-19T11:15:10.490Z,38.76
2018-04-19T11:16:09.929Z,38.21
2018-04-19T11:17:10.436Z,38.04
2018-04-19T11:18:10.304Z,38.31
2018-04-19T11:19:10.197Z,38.60
2018-04-19T11:20:31.598Z,38.84
2018-04-19T11:21:52.604Z,38.50
2018-04-19T11:23:13.780Z,38.92
2018-04-19T11:24:34.507Z,38.54
2018-04-19T11:25:35.597Z,38.40
2018-04-19T11:26:39.311Z,38.19
2018-04-19T11:27:36.819Z,38.31
2018-04-19T11:28:55.149Z,38.20
2018-04-19T11:30:17.604Z,38.69
2018-04-19T11:31:17.719Z,38.12
2018-04-19T11:32:17.659Z,37.68
2018-04-19T11:33:17.928Z,37.36
2018-04-19T11:34:18.325Z,37.23
2018-04-19T11:35:18.083Z,37.60
2018-04-19T11:36:17.812Z,37.77
2018-04-19T11:37:18.850Z,37.80
2018-04-19T11:38:17.644Z,37.82
2018-04-19T11:39:17.842Z,37.86
2018-04-19T11:40:38.717Z,38.21
2018-04-19T11:41:59.445Z,38.92
2018-04-19T11:42:59.758Z,39.15
2018-04-19T11:44:20.489Z,39.30
2018-04-19T11:45:20.630Z,39.48
2018-04-19T11:46:20.856Z,39.48
2018-04-19T11:47:42.065Z,38.80
2018-04-19T11:49:23.341Z,38.43
2018-04-19T11:51:04.082Z,38.61
2018-04-19T11:52:05.310Z,38.54
2018-04-19T11:53:24.824Z,38.23
2018-04-19T11:54:25.678Z,38.27
2018-04-19T11:55:25.489Z,37.83
2018-04-19T11:56:46.102Z,37.89
2018-04-19T11:57:46.836Z,37.64
2018-04-19T11:59:07.229Z,37.87
2018-04-19T12:00:08.389Z,37.93
2018-04-19T12:01:28.650Z,37.75
2018-04-19T12:02:29.661Z,37.63
2018-04-19T12:04:10.372Z,37.30
2018-04-19T12:05:11.584Z,37.45
2018-04-19T12:06:10.382Z,37.74
2018-04-19T12:07:31.893Z,37.29
2018-04-19T12:08:33.732Z,37.03
2018-04-19T12:09:32.895Z,37.14
2018-04-19T12:10:33.281Z,37.28
2018-04-19T12:11:32.601Z,37.11
2018-04-19T12:12:32.742Z,36.76
2018-04-19T12:14:14.324Z,36.35
2018-04-19T12:15:14.147Z,36.68
2018-04-19T12:16:15.430Z,36.79
2018-04-19T12:17:14.091Z,37.11
2018-04-19T12:18:15.771Z,37.58
2018-04-19T12:19:36.358Z,37.82
2018-04-19T12:20:37.200Z,37.75
2018-04-19T12:21:36.020Z,37.77
2018-04-19T12:22:58.009Z,37.86
2018-04-19T12:24:19.337Z,36.89
2018-04-19T12:25:19.387Z,36.64
2018-04-19T12:26:19.836Z,36.76
2018-04-19T12:27:20.206Z,36.95
2018-04-19T12:28:20.003Z,36.72
2018-04-19T12:29:25.580Z,36.77
2018-04-19T12:30:20.033Z,36.89
2018-04-19T12:31:42.933Z,37.06
2018-04-19T12:32:43.118Z,36.80
2018-04-19T12:33:42.158Z,36.72
2018-04-19T12:34:42.333Z,36.51
2018-04-19T12:35:42.958Z,35.90
2018-04-19T12:37:05.549Z,36.27
2018-04-19T12:38:06.544Z,36.62
2018-04-19T12:39:49.278Z,36.52
2018-04-19T12:40:53.415Z,36.23
2018-04-19T12:41:51.152Z,35.97
2018-04-19T12:42:50.001Z,35.83
2018-04-19T12:43:49.915Z,35.79
2018-04-19T12:44:50.861Z,35.73
2018-04-19T12:45:54.822Z,35.90
2018-04-19T12:46:50.553Z,36.16
2018-04-19T12:47:50.718Z,36.24
2018-04-19T12:48:51.834Z,36.30
2018-04-19T12:50:14.070Z,36.49
2018-04-19T12:51:11.915Z,36.42
2018-04-19T12:52:32.914Z,36.21
2018-04-19T12:53:33.164Z,36.24
2018-04-19T12:54:53.939Z,35.95
2018-04-19T12:56:14.500Z,35.78
2018-04-19T12:57:15.334Z,35.92
2018-04-19T12:58:36.034Z,35.79
2018-04-19T12:59:37.278Z,35.29
2018-04-19T13:00:36.933Z,35.30
2018-04-19T13:01:37.282Z,35.41
2018-04-19T13:02:39.917Z,35.63
2018-04-19T13:03:37.111Z,35.71
2018-04-19T13:04:36.979Z,35.97
2018-04-19T13:05:36.965Z,36.21
2018-04-19T13:06:37.979Z,36.24
2018-04-19T13:07:36.890Z,36.30
2018-04-19T13:08:37.231Z,35.78
2018-04-19T13:09:38.349Z,35.31
2018-04-19T13:10:36.529Z,35.22
2018-04-19T13:11:36.746Z,35.34
2018-04-19T13:12:36.983Z,35.29
2018-04-19T13:13:36.756Z,35.41
2018-04-19T13:14:36.787Z,35.51
2018-04-19T13:15:36.706Z,35.82
2018-04-19T13:16:36.495Z,35.93
2018-04-19T13:17:36.521Z,35.83
2018-04-19T13:18:37.433Z,35.66
2018-04-19T13:19:36.201Z,35.51
2018-04-19T13:20:36.463Z,35.71
2018-04-19T13:21:36.566Z,35.66
2018-04-19T13:22:37.050Z,35.42
2018-04-19T13:23:35.908Z,35.12
2018-04-19T13:24:37.050Z,35.04
2018-04-19T13:25:37.226Z,34.93
2018-04-19T13:26:36.142Z,35.10
2018-04-19T13:27:36.457Z,34.95
2018-04-19T13:28:36.354Z,34.81
2018-04-19T13:29:36.577Z,34.33
2018-04-19T13:30:58.590Z,34.42
2018-04-19T13:31:58.360Z,34.75
2018-04-19T13:32:58.334Z,34.85
2018-04-19T13:34:19.686Z,35.08
2018-04-19T13:35:20.593Z,34.74
2018-04-19T13:36:20.551Z,34.67
2018-04-19T13:37:20.467Z,34.80
2018-04-19T13:38:42.343Z,34.55
2018-04-19T13:39:42.840Z,34.42
2018-04-19T13:41:03.078Z,34.36
2018-04-19T13:42:04.006Z,34.33
2018-04-19T13:43:04.193Z,34.33
2018-04-19T13:44:04.686Z,34.62
2018-04-19T13:45:03.920Z,34.88
2018-04-19T13:46:03.778Z,34.75
2018-04-19T13:47:04.365Z,34.85
2018-04-19T13:48:03.654Z,34.89
2018-04-19T13:49:04.006Z,34.52